Time;durP1;ratioP1;P1;durP2;ratioP2;P2;SDS_P1;SDS_P2;PMS_P1;PMS_P2;Temp;Humidity;BMP_temperature;BMP_pressure;BME280_temperature;BME280_humidity;BME280_pressure;Samples;Min_cycle;Max_cycle;Signal;HPM_P1;HPM_P2
2023/04/16 00:01:25;;;;;;;60.53;23.67;;;;;;;;;;5093697;28;20056;-76
2023/04/16 00:03:51;;;;;;;58.95;21.38;;;;;;;;;;5075522;28;20046;-76
2023/04/16 00:06:17;;;;;;;60.03;22.25;;;;;;;;;;5093424;28;20044;-76
2023/04/16 00:08:43;;;;;;;59.80;21.83;;;;;;;;;;5093570;28;20052;-76
2023/04/16 00:11:09;;;;;;;50.30;20.67;;;;;;;;;;5087438;28;20119;-76
2023/04/16 00:13:35;;;;;;;56.00;20.52;;;;;;;;;;5093731;28;20070;-76
2023/04/16 00:16:01;;;;;;;54.75;22.42;;;;;;;;;;5092667;28;20075;-75
2023/04/16 00:18:27;;;;;;;50.83;20.83;;;;;;;;;;5093405;28;20105;-75
2023/04/16 00:20:53;;;;;;;55.42;22.92;;;;;;;;;;5093780;28;20092;-75
2023/04/16 00:23:20;;;;;;;57.13;22.13;;;;;;;;;;5092220;28;20048;-74
2023/04/16 00:25:46;;;;;;;56.28;22.42;;;;;;;;;;5092647;28;20040;-79
2023/04/16 00:28:12;;;;;;;51.72;22.58;;;;;;;;;;5092211;28;20127;-74
2023/04/16 00:30:38;;;;;;;48.42;20.52;;;;;;;;;;5092438;28;20394;-75
2023/04/16 00:33:05;;;;;;;56.38;22.40;;;;;;;;;;5093272;28;20474;-75
2023/04/16 00:35:31;;;;;;;51.67;22.20;;;;;;;;;;5093749;28;20055;-75
2023/04/16 00:37:57;;;;;;;51.70;21.48;;;;;;;;;;5093672;28;20040;-74
2023/04/16 00:40:26;;;;;;;51.60;20.23;;;;;;;;;;5086103;28;20051;-75
2023/04/16 00:42:52;;;;;;;47.30;18.17;;;;;;;;;;5073244;28;20048;-75
2023/04/16 00:45:18;;;;;;;47.78;20.05;;;;;;;;;;5072986;28;20041;-75
2023/04/16 00:47:44;;;;;;;61.28;21.88;;;;;;;;;;5073185;28;20066;-75
2023/04/16 00:50:11;;;;;;;58.33;22.13;;;;;;;;;;5072752;28;20456;-75
2023/04/16 00:52:37;;;;;;;49.70;21.60;;;;;;;;;;5073068;28;20076;-75
2023/04/16 00:55:05;;;;;;;53.85;24.23;;;;;;;;;;5088372;28;20066;-75
2023/04/16 00:57:31;;;;;;;57.55;21.27;;;;;;;;;;5093083;28;20087;-75
2023/04/16 00:59:57;;;;;;;47.53;19.85;;;;;;;;;;5092056;28;20040;-75
2023/04/16 01:02:24;;;;;;;42.13;18.27;;;;;;;;;;5092889;28;20043;-75
2023/04/16 01:04:50;;;;;;;48.75;20.48;;;;;;;;;;5094252;28;20128;-75
2023/04/16 01:07:16;;;;;;;49.13;21.50;;;;;;;;;;5097090;28;20072;-75
2023/04/16 01:09:42;;;;;;;52.00;21.17;;;;;;;;;;5084651;28;20054;-75
2023/04/16 01:12:08;;;;;;;50.80;20.73;;;;;;;;;;5085959;28;20454;-76
2023/04/16 01:14:35;;;;;;;61.53;22.48;;;;;;;;;;5093788;28;20124;-76
2023/04/16 01:17:02;;;;;;;58.60;23.25;;;;;;;;;;5095050;28;20043;-76
2023/04/16 01:19:30;;;;;;;52.38;21.67;;;;;;;;;;5087155;28;20064;-76
2023/04/16 01:21:56;;;;;;;51.70;20.35;;;;;;;;;;5082008;28;20139;-76
2023/04/16 01:24:22;;;;;;;50.60;20.23;;;;;;;;;;5077316;28;20547;-76
2023/04/16 01:26:49;;;;;;;61.05;21.05;;;;;;;;;;5088737;28;20071;-76
2023/04/16 01:29:15;;;;;;;55.08;23.05;;;;;;;;;;5076204;28;20127;-76
2023/04/16 01:31:41;;;;;;;52.30;20.42;;;;;;;;;;5076247;28;20053;-75
2023/04/16 01:34:07;;;;;;;47.90;21.17;;;;;;;;;;5076337;28;20048;-75
2023/04/16 01:36:33;;;;;;;50.30;20.45;;;;;;;;;;5096375;28;20051;-75
2023/04/16 01:38:59;;;;;;;47.70;19.73;;;;;;;;;;5091579;28;20037;-74
2023/04/16 01:41:26;;;;;;;50.30;21.73;;;;;;;;;;5079698;28;20052;-76
2023/04/16 01:43:52;;;;;;;47.95;21.88;;;;;;;;;;5076113;28;20063;-75
2023/04/16 01:46:20;;;;;;;52.50;22.83;;;;;;;;;;5075741;28;20051;-75
2023/04/16 01:48:46;;;;;;;48.47;23.25;;;;;;;;;;5076184;28;20067;-75
2023/04/16 01:51:12;;;;;;;57.53;24.55;;;;;;;;;;5075869;28;20478;-75
2023/04/16 01:53:38;;;;;;;46.80;20.33;;;;;;;;;;5075941;28;20127;-74
2023/04/16 01:56:05;;;;;;;68.10;25.98;;;;;;;;;;5087317;28;20068;-75
2023/04/16 01:58:32;;;;;;;69.30;28.48;;;;;;;;;;5095974;28;20044;-75
2023/04/16 02:00:58;;;;;;;67.68;28.27;;;;;;;;;;5084226;28;20119;-75
2023/04/16 02:03:24;;;;;;;73.72;25.77;;;;;;;;;;5075733;28;20486;-75
2023/04/16 02:05:51;;;;;;;67.70;26.35;;;;;;;;;;5075644;28;20048;-75
2023/04/16 02:08:17;;;;;;;68.70;26.98;;;;;;;;;;5075861;28;20051;-75
2023/04/16 02:10:46;;;;;;;73.78;26.95;;;;;;;;;;5075443;28;20040;-75
2023/04/16 02:13:13;;;;;;;67.07;26.08;;;;;;;;;;5075564;28;20040;-75
2023/04/16 02:15:39;;;;;;;81.80;27.20;;;;;;;;;;5074814;28;20041;-75
2023/04/16 02:18:05;;;;;;;78.07;26.00;;;;;;;;;;5074515;28;20086;-75
2023/04/16 02:20:31;;;;;;;76.85;25.50;;;;;;;;;;5094359;28;20058;-75
2023/04/16 02:22:57;;;;;;;73.47;28.42;;;;;;;;;;5095575;28;20126;-75
2023/04/16 02:25:23;;;;;;;70.75;27.65;;;;;;;;;;5095689;28;20441;-75
2023/04/16 02:27:50;;;;;;;77.95;28.73;;;;;;;;;;5093879;28;20394;-75
2023/04/16 02:30:16;;;;;;;83.30;28.77;;;;;;;;;;5095355;28;20076;-75
2023/04/16 02:32:42;;;;;;;78.70;27.45;;;;;;;;;;5093360;28;20455;-76
2023/04/16 02:35:08;;;;;;;69.90;25.80;;;;;;;;;;5095478;28;20518;-76
2023/04/16 02:37:34;;;;;;;69.22;25.92;;;;;;;;;;5095258;28;20047;-76
2023/04/16 02:40:00;;;;;;;77.35;26.02;;;;;;;;;;5094855;28;20032;-76
2023/04/16 02:42:27;;;;;;;70.53;26.48;;;;;;;;;;5095076;28;20402;-76
2023/04/16 02:44:53;;;;;;;64.70;25.25;;;;;;;;;;5094934;28;20518;-76
2023/04/16 02:47:19;;;;;;;70.65;26.50;;;;;;;;;;5086298;28;20036;-76
2023/04/16 02:49:45;;;;;;;65.63;25.25;;;;;;;;;;5074787;28;20057;-75
2023/04/16 02:52:11;;;;;;;59.55;23.58;;;;;;;;;;5074181;28;20062;-76
2023/04/16 02:54:37;;;;;;;60.97;23.27;;;;;;;;;;5075201;28;20450;-76
2023/04/16 02:57:04;;;;;;;53.78;22.35;;;;;;;;;;5074572;28;20051;-74
2023/04/16 02:59:30;;;;;;;61.03;24.38;;;;;;;;;;5074438;28;20063;-75
2023/04/16 03:01:56;;;;;;;62.65;23.17;;;;;;;;;;5081770;28;20047;-75
2023/04/16 03:04:22;;;;;;;64.85;24.13;;;;;;;;;;5094761;28;20040;-75
2023/04/16 03:06:48;;;;;;;59.58;22.90;;;;;;;;;;5094779;28;20111;-76
2023/04/16 03:09:14;;;;;;;60.50;22.35;;;;;;;;;;5094827;28;20040;-75
2023/04/16 03:11:40;;;;;;;53.28;22.30;;;;;;;;;;5078080;28;20090;-76
2023/04/16 03:14:06;;;;;;;55.08;22.92;;;;;;;;;;5090674;28;20040;-75
2023/04/16 03:16:32;;;;;;;53.60;22.05;;;;;;;;;;5093961;28;20047;-76
2023/04/16 03:18:58;;;;;;;53.30;21.02;;;;;;;;;;5094121;28;20490;-76
2023/04/16 03:21:26;;;;;;;49.97;20.40;;;;;;;;;;5093201;28;20063;-76
2023/04/16 03:23:53;;;;;;;46.53;20.33;;;;;;;;;;5094308;28;20148;-75
2023/04/16 03:26:19;;;;;;;64.65;24.00;;;;;;;;;;5094342;28;20390;-75
2023/04/16 03:28:45;;;;;;;64.90;22.35;;;;;;;;;;5094194;28;20048;-75
2023/04/16 03:31:11;;;;;;;59.10;22.08;;;;;;;;;;5093215;28;20039;-76
2023/04/16 03:33:37;;;;;;;56.15;22.42;;;;;;;;;;5093723;28;20405;-75
2023/04/16 03:36:04;;;;;;;54.72;20.88;;;;;;;;;;5094119;28;20119;-76
2023/04/16 03:38:30;;;;;;;52.67;22.27;;;;;;;;;;5092931;28;20094;-75
2023/04/16 03:40:56;;;;;;;61.15;21.95;;;;;;;;;;5084030;28;20097;-75
2023/04/16 03:43:22;;;;;;;60.08;22.35;;;;;;;;;;5073605;28;20048;-75
2023/04/16 03:45:48;;;;;;;61.53;21.23;;;;;;;;;;5077692;28;20046;-75
2023/04/16 03:48:14;;;;;;;63.25;21.80;;;;;;;;;;5094082;28;20118;-76
2023/04/16 03:50:44;;;;;;;61.50;22.60;;;;;;;;;;5093747;28;20044;-76
2023/04/16 03:53:10;;;;;;;59.15;22.67;;;;;;;;;;5093746;28;20047;-75
2023/04/16 03:55:36;;;;;;;64.50;21.55;;;;;;;;;;5093677;28;20051;-76
2023/04/16 03:58:03;;;;;;;51.63;21.48;;;;;;;;;;5094118;28;20079;-75
2023/04/16 04:00:30;;;;;;;54.83;21.40;;;;;;;;;;5093542;28;20055;-75
2023/04/16 04:02:56;;;;;;;59.72;21.92;;;;;;;;;;5093730;28;20052;-76
2023/04/16 04:05:22;;;;;;;55.47;22.60;;;;;;;;;;5093462;28;20052;-76
2023/04/16 04:07:48;;;;;;;56.53;19.90;;;;;;;;;;5093631;28;20047;-75
2023/04/16 04:10:15;;;;;;;62.88;23.80;;;;;;;;;;5093318;28;20036;-75
2023/04/16 04:12:41;;;;;;;71.10;23.40;;;;;;;;;;5093872;28;20052;-75
2023/04/16 04:15:07;;;;;;;70.65;23.80;;;;;;;;;;5090035;28;20036;-76
2023/04/16 04:17:33;;;;;;;58.58;21.92;;;;;;;;;;5073984;28;20043;-75
2023/04/16 04:19:59;;;;;;;64.60;23.95;;;;;;;;;;5078100;28;20060;-76
2023/04/16 04:22:25;;;;;;;70.32;22.25;;;;;;;;;;5078490;28;20083;-75
2023/04/16 04:24:51;;;;;;;69.18;21.73;;;;;;;;;;5075719;28;20041;-75
2023/04/16 04:27:17;;;;;;;66.35;21.05;;;;;;;;;;5075164;28;20071;-75
2023/04/16 04:29:43;;;;;;;52.97;19.80;;;;;;;;;;5075619;28;20108;-75
2023/04/16 04:32:09;;;;;;;62.60;20.25;;;;;;;;;;5094117;28;20412;-75
2023/04/16 04:34:35;;;;;;;50.97;18.05;;;;;;;;;;5093515;28;20123;-76
2023/04/16 04:37:01;;;;;;;52.85;19.33;;;;;;;;;;5092911;28;20044;-75
2023/04/16 04:39:27;;;;;;;57.90;20.48;;;;;;;;;;5093941;28;20094;-76
2023/04/16 04:41:53;;;;;;;55.25;20.48;;;;;;;;;;5097864;28;20489;-75
2023/04/16 04:44:19;;;;;;;62.70;21.73;;;;;;;;;;5097634;28;20080;-76
2023/04/16 04:46:45;;;;;;;61.08;22.17;;;;;;;;;;5097327;28;20096;-76
2023/04/16 04:49:11;;;;;;;70.30;24.13;;;;;;;;;;5097343;28;20076;-75
2023/04/16 04:51:37;;;;;;;77.88;24.40;;;;;;;;;;5095532;28;20510;-75
2023/04/16 04:54:03;;;;;;;63.03;21.92;;;;;;;;;;5096892;28;20046;-75
2023/04/16 04:56:29;;;;;;;63.28;20.67;;;;;;;;;;5097487;28;20044;-73
2023/04/16 04:58:55;;;;;;;52.88;21.30;;;;;;;;;;5097475;28;20378;-74
2023/04/16 05:01:22;;;;;;;64.40;22.08;;;;;;;;;;5096981;28;20068;-75
2023/04/16 05:03:48;;;;;;;53.80;21.85;;;;;;;;;;5097063;28;20048;-75
2023/04/16 05:06:14;;;;;;;54.45;22.52;;;;;;;;;;5096611;28;20123;-75
2023/04/16 05:08:40;;;;;;;53.15;22.38;;;;;;;;;;5096834;28;20067;-74
2023/04/16 05:11:06;;;;;;;54.17;20.48;;;;;;;;;;5096564;28;20125;-75
2023/04/16 05:13:32;;;;;;;61.42;20.90;;;;;;;;;;5078563;28;20048;-75
2023/04/16 05:15:58;;;;;;;60.05;22.02;;;;;;;;;;5095708;28;20036;-74
2023/04/16 05:18:24;;;;;;;56.75;21.55;;;;;;;;;;5095794;28;20556;-74
2023/04/16 05:20:50;;;;;;;56.90;20.52;;;;;;;;;;5076183;28;20048;-74
2023/04/16 05:23:16;;;;;;;51.83;19.85;;;;;;;;;;5076004;28;20506;-74
2023/04/16 05:25:42;;;;;;;59.13;21.63;;;;;;;;;;5076350;28;20123;-74
2023/04/16 05:28:09;;;;;;;64.60;22.23;;;;;;;;;;5076286;28;20040;-75
2023/04/16 05:30:35;;;;;;;67.22;23.13;;;;;;;;;;5076061;28;20044;-76
2023/04/16 05:33:01;;;;;;;62.53;22.63;;;;;;;;;;5093493;28;20043;-75
2023/04/16 05:35:27;;;;;;;55.05;21.98;;;;;;;;;;5096435;28;20104;-75
2023/04/16 05:37:54;;;;;;;52.88;21.30;;;;;;;;;;5095951;28;20051;-75
2023/04/16 05:40:20;;;;;;;63.80;21.27;;;;;;;;;;5090197;28;20036;-75
2023/04/16 05:42:46;;;;;;;59.03;21.63;;;;;;;;;;5074656;28;20040;-75
2023/04/16 05:45:12;;;;;;;63.58;20.50;;;;;;;;;;5076069;28;20047;-75
2023/04/16 05:47:41;;;;;;;59.22;19.73;;;;;;;;;;5074508;28;20136;-75
2023/04/16 05:50:07;;;;;;;55.15;18.45;;;;;;;;;;5074150;28;20394;-75
2023/04/16 05:52:33;;;;;;;46.72;18.92;;;;;;;;;;5094621;28;20385;-76
2023/04/16 05:55:00;;;;;;;56.28;20.63;;;;;;;;;;5094449;28;20123;-76
2023/04/16 05:57:27;;;;;;;52.72;18.83;;;;;;;;;;5094813;28;20060;-75
2023/04/16 05:59:53;;;;;;;57.63;20.20;;;;;;;;;;5095763;28;20466;-76
2023/04/16 06:02:19;;;;;;;55.35;19.58;;;;;;;;;;5078481;28;20131;-76
2023/04/16 06:04:45;;;;;;;61.10;18.70;;;;;;;;;;5075293;28;20037;-76
2023/04/16 06:07:11;;;;;;;49.85;17.70;;;;;;;;;;5075562;28;20063;-76
2023/04/16 06:09:37;;;;;;;48.38;18.58;;;;;;;;;;5076294;28;20044;-75
2023/04/16 06:12:03;;;;;;;56.22;18.90;;;;;;;;;;5090923;28;20123;-76
2023/04/16 06:14:29;;;;;;;62.97;19.55;;;;;;;;;;5074993;28;20112;-76
2023/04/16 06:16:55;;;;;;;45.17;17.00;;;;;;;;;;5101823;28;20086;-76
2023/04/16 06:19:22;;;;;;;47.13;18.25;;;;;;;;;;5073465;28;20147;-76
2023/04/16 06:21:48;;;;;;;44.97;18.42;;;;;;;;;;5077733;28;20056;-76
2023/04/16 06:24:14;;;;;;;46.58;18.70;;;;;;;;;;5075275;28;20053;-75
2023/04/16 06:26:40;;;;;;;39.13;18.08;;;;;;;;;;5084495;28;20044;-76
2023/04/16 06:29:06;;;;;;;60.30;20.33;;;;;;;;;;5076208;28;20104;-75
2023/04/16 06:31:32;;;;;;;48.38;18.38;;;;;;;;;;5086121;28;20122;-75
2023/04/16 06:33:58;;;;;;;42.63;17.35;;;;;;;;;;5091749;28;20040;-76
2023/04/16 06:36:26;;;;;;;40.38;16.63;;;;;;;;;;5073807;28;20051;-76
2023/04/16 06:38:52;;;;;;;47.00;16.90;;;;;;;;;;5073912;28;20052;-74
2023/04/16 06:41:18;;;;;;;43.35;17.73;;;;;;;;;;5086711;28;20460;-74
2023/04/16 06:43:44;;;;;;;38.90;17.80;;;;;;;;;;5076720;28;20445;-75
2023/04/16 06:46:10;;;;;;;44.20;20.08;;;;;;;;;;5095222;28;20040;-74
2023/04/16 06:48:36;;;;;;;47.45;18.35;;;;;;;;;;5094125;28;20048;-75
2023/04/16 06:51:02;;;;;;;44.08;16.70;;;;;;;;;;5093266;28;20097;-75
2023/04/16 06:53:28;;;;;;;40.55;16.80;;;;;;;;;;5093617;28;20127;-75
2023/04/16 06:55:55;;;;;;;56.60;19.42;;;;;;;;;;5095034;28;20067;-75
2023/04/16 06:58:21;;;;;;;46.17;17.88;;;;;;;;;;5094411;28;20578;-75
2023/04/16 07:00:47;;;;;;;44.28;15.82;;;;;;;;;;5094751;28;20048;-76
2023/04/16 07:03:13;;;;;;;41.20;15.75;;;;;;;;;;5093152;28;20047;-76
2023/04/16 07:05:39;;;;;;;39.92;17.63;;;;;;;;;;5094716;28;20047;-76
2023/04/16 07:08:05;;;;;;;43.85;17.70;;;;;;;;;;5094753;28;20044;-76
2023/04/16 07:10:31;;;;;;;47.40;18.55;;;;;;;;;;5087561;28;20045;-76
2023/04/16 07:13:00;;;;;;;49.47;17.88;;;;;;;;;;5074056;28;20037;-76
2023/04/16 07:15:26;;;;;;;50.65;18.25;;;;;;;;;;5072626;28;20052;-76
2023/04/16 07:17:52;;;;;;;53.00;19.05;;;;;;;;;;5073534;28;20116;-76
2023/04/16 07:20:18;;;;;;;52.35;18.65;;;;;;;;;;5094353;28;20082;-76
2023/04/16 07:22:44;;;;;;;46.22;18.30;;;;;;;;;;5098682;28;20040;-76
2023/04/16 07:25:10;;;;;;;47.63;16.45;;;;;;;;;;5098616;28;20056;-75
2023/04/16 07:27:36;;;;;;;44.33;18.95;;;;;;;;;;5095046;28;20091;-76
2023/04/16 07:30:02;;;;;;;44.25;17.50;;;;;;;;;;5071398;28;20064;-76
2023/04/16 07:32:29;;;;;;;46.00;18.73;;;;;;;;;;5072764;28;20060;-76
2023/04/16 07:34:55;;;;;;;43.95;17.98;;;;;;;;;;5088061;28;20048;-77
2023/04/16 07:37:21;;;;;;;38.83;15.52;;;;;;;;;;5092933;28;20059;-77
2023/04/16 07:39:47;;;;;;;43.42;18.00;;;;;;;;;;5092908;28;20051;-77
2023/04/16 07:42:13;;;;;;;49.22;18.48;;;;;;;;;;5093996;28;20603;-77
2023/04/16 07:44:40;;;;;;;38.15;15.15;;;;;;;;;;5093629;28;20036;-77
2023/04/16 07:47:06;;;;;;;40.20;17.50;;;;;;;;;;5094362;28;20055;-76
2023/04/16 07:49:32;;;;;;;38.65;17.23;;;;;;;;;;5092064;28;20051;-77
2023/04/16 07:51:58;;;;;;;48.13;16.95;;;;;;;;;;5078191;28;20044;-76
2023/04/16 07:54:24;;;;;;;47.90;18.25;;;;;;;;;;5073713;28;20076;-77
2023/04/16 07:56:50;;;;;;;40.30;17.45;;;;;;;;;;5072746;28;20054;-76
2023/04/16 07:59:16;;;;;;;42.00;16.73;;;;;;;;;;5073131;28;20049;-77
2023/04/16 08:01:42;;;;;;;35.30;16.75;;;;;;;;;;5073521;28;20102;-77
2023/04/16 08:04:08;;;;;;;39.70;16.65;;;;;;;;;;5089493;28;20352;-77
2023/04/16 08:06:34;;;;;;;38.40;16.25;;;;;;;;;;5093919;28;20044;-77
2023/04/16 08:09:00;;;;;;;35.25;14.93;;;;;;;;;;5092399;28;20179;-77
2023/04/16 08:11:26;;;;;;;42.47;18.10;;;;;;;;;;5093591;28;20083;-77
2023/04/16 08:13:52;;;;;;;46.22;17.90;;;;;;;;;;5092134;28;20164;-77
2023/04/16 08:16:18;;;;;;;43.92;19.52;;;;;;;;;;5096479;28;20044;-77
2023/04/16 08:18:44;;;;;;;30.65;15.57;;;;;;;;;;5080797;28;20052;-77
2023/04/16 08:21:10;;;;;;;46.00;16.67;;;;;;;;;;5076116;28;20048;-77
2023/04/16 08:23:36;;;;;;;44.47;19.77;;;;;;;;;;5078049;28;20044;-77
2023/04/16 08:26:02;;;;;;;58.42;19.85;;;;;;;;;;5079751;28;20119;-77
2023/04/16 08:28:28;;;;;;;33.10;16.70;;;;;;;;;;5075842;28;20410;-77
2023/04/16 08:30:54;;;;;;;46.90;19.33;;;;;;;;;;5077153;28;20401;-77
2023/04/16 08:33:21;;;;;;;45.15;19.52;;;;;;;;;;5075922;28;20048;-77
2023/04/16 08:35:47;;;;;;;45.25;19.38;;;;;;;;;;5077515;28;20048;-77
2023/04/16 08:38:13;;;;;;;38.90;17.63;;;;;;;;;;5100366;28;20398;-77
2023/04/16 08:40:41;;;;;;;38.13;17.73;;;;;;;;;;5096612;28;20470;-77
2023/04/16 08:43:11;;;;;;;39.25;15.75;;;;;;;;;;5096462;28;20097;-77
2023/04/16 08:45:37;;;;;;;40.83;16.52;;;;;;;;;;5095947;28;20048;-77
2023/04/16 08:48:04;;;;;;;40.90;18.98;;;;;;;;;;5095474;28;20402;-77
2023/04/16 08:50:33;;;;;;;36.38;17.33;;;;;;;;;;5092528;28;20045;-77
2023/04/16 08:53:03;;;;;;;46.75;19.65;;;;;;;;;;5075921;28;20048;-77
2023/04/16 08:55:39;;;;;;;40.55;18.08;;;;;;;;;;5077332;28;20045;-77
2023/04/16 08:58:05;;;;;;;;;;;;;;;;;;5077549;28;20488;-77
2023/04/16 09:00:31;;;;;;;37.60;16.90;;;;;;;;;;5077065;28;19920;-76
2023/04/16 09:02:57;;;;;;;40.47;18.52;;;;;;;;;;5076757;28;20040;-76
2023/04/16 09:05:25;;;;;;;43.03;17.98;;;;;;;;;;5076525;28;20051;-76
2023/04/16 09:07:52;;;;;;;40.88;19.08;;;;;;;;;;5076336;28;20067;-76
2023/04/16 09:10:19;;;;;;;40.15;18.75;;;;;;;;;;5082970;28;20439;-76
2023/04/16 09:12:45;;;;;;;44.50;18.85;;;;;;;;;;5097029;28;20070;-76
2023/04/16 09:15:12;;;;;;;41.65;18.90;;;;;;;;;;5096651;28;20047;-76
2023/04/16 09:17:38;;;;;;;43.38;18.35;;;;;;;;;;5096532;28;20090;-76
2023/04/16 09:20:07;;;;;;;40.47;18.58;;;;;;;;;;5096620;28;20073;-76
2023/04/16 09:22:33;;;;;;;35.45;18.63;;;;;;;;;;5096914;28;20044;-76
2023/04/16 09:24:59;;;;;;;43.22;19.50;;;;;;;;;;5094471;28;20471;-76
2023/04/16 09:27:26;;;;;;;39.15;18.70;;;;;;;;;;5096492;28;20125;-76
2023/04/16 09:29:52;;;;;;;36.50;17.55;;;;;;;;;;5096482;28;20072;-76
2023/04/16 09:32:23;;;;;;;35.67;17.30;;;;;;;;;;5096550;28;20067;-76
2023/04/16 09:35:00;;;;;;;48.95;17.90;;;;;;;;;;5095824;28;20036;-76
2023/04/16 09:37:30;;;;;;;34.60;16.08;;;;;;;;;;5089619;28;20048;-76
2023/04/16 09:40:00;;;;;;;35.47;16.38;;;;;;;;;;5076328;28;20106;-76
2023/04/16 09:42:27;;;;;;;35.63;16.95;;;;;;;;;;5075905;28;20055;-76
2023/04/16 09:44:54;;;;;;;36.17;16.60;;;;;;;;;;5075802;28;20569;-76
2023/04/16 09:47:20;;;;;;;39.53;17.80;;;;;;;;;;5075971;28;20071;-76
2023/04/16 09:49:47;;;;;;;29.65;15.32;;;;;;;;;;5095692;28;20096;-76
2023/04/16 09:52:17;;;;;;;28.92;15.10;;;;;;;;;;5095933;28;20043;-77
2023/04/16 09:54:47;;;;;;;36.13;17.58;;;;;;;;;;5096236;28;20054;-77
2023/04/16 09:57:13;;;;;;;34.65;17.38;;;;;;;;;;5095933;28;20036;-77
2023/04/16 09:59:39;;;;;;;37.53;16.65;;;;;;;;;;5095834;28;20036;-77
2023/04/16 10:02:07;;;;;;;42.70;16.88;;;;;;;;;;5078083;28;20114;-77
2023/04/16 10:04:50;;;;;;;45.33;19.00;;;;;;;;;;5057566;28;20064;-76
2023/04/16 10:07:16;;;;;;;36.47;17.30;;;;;;;;;;5075338;28;20128;-77
2023/04/16 10:09:42;;;;;;;36.10;17.27;;;;;;;;;;5075410;28;20044;-76
2023/04/16 10:12:09;;;;;;;37.60;17.20;;;;;;;;;;5075172;28;20040;-76
2023/04/16 10:14:36;;;;;;;38.88;18.85;;;;;;;;;;5075426;28;20501;-76
2023/04/16 10:17:03;;;;;;;34.97;16.67;;;;;;;;;;5076137;28;20062;-76
2023/04/16 10:19:32;;;;;;;34.90;16.35;;;;;;;;;;5075144;28;20401;-76
2023/04/16 10:21:59;;;;;;;34.05;17.85;;;;;;;;;;5075409;28;20060;-76
2023/04/16 10:24:25;;;;;;;34.00;17.90;;;;;;;;;;5075563;28;20123;-76
2023/04/16 10:26:52;;;;;;;34.33;17.40;;;;;;;;;;5075097;28;20044;-76
2023/04/16 10:29:22;;;;;;;34.05;17.13;;;;;;;;;;5080495;28;20100;-76
2023/04/16 10:31:49;;;;;;;46.47;19.10;;;;;;;;;;5081163;28;20089;-76
2023/04/16 10:34:15;;;;;;;26.83;16.75;;;;;;;;;;5075851;28;20048;-76
2023/04/16 10:36:41;;;;;;;25.52;15.13;;;;;;;;;;5075659;28;20093;-76
2023/04/16 10:39:12;;;;;;;30.50;15.60;;;;;;;;;;5092818;28;20046;-77
2023/04/16 10:41:39;;;;;;;29.17;16.15;;;;;;;;;;5075220;28;20433;-76
2023/04/16 10:44:08;;;;;;;31.38;17.02;;;;;;;;;;5092318;28;20051;-77
2023/04/16 10:46:37;;;;;;;33.10;16.27;;;;;;;;;;5095139;28;20035;-77
2023/04/16 10:49:12;;;;;;;42.70;17.05;;;;;;;;;;5095132;28;20120;-76
2023/04/16 10:51:39;;;;;;;33.08;17.60;;;;;;;;;;5093789;28;20040;-77
2023/04/16 10:54:07;;;;;;;30.17;15.25;;;;;;;;;;5086554;28;20047;-77
2023/04/16 10:56:34;;;;;;;28.30;15.95;;;;;;;;;;5056491;28;20382;-77
2023/04/16 10:59:01;;;;;;;31.98;16.10;;;;;;;;;;5082674;28;20043;-77
2023/04/16 11:01:31;;;;;;;31.70;16.48;;;;;;;;;;5085562;28;20071;-76
2023/04/16 11:04:20;;;;;;;37.28;17.50;;;;;;;;;;5094462;28;20044;-76
2023/04/16 11:07:02;;;;;;;33.55;16.23;;;;;;;;;;5082126;28;20458;-76
2023/04/16 11:09:46;;;;;;;27.23;15.73;;;;;;;;;;5094881;28;20059;-76
2023/04/16 11:12:15;;;;;;;32.97;17.13;;;;;;;;;;5084910;28;20111;-76
2023/04/16 11:14:41;;;;;;;35.58;18.10;;;;;;;;;;5074035;28;20102;-76
2023/04/16 11:17:08;;;;;;;34.70;15.30;;;;;;;;;;5085280;28;20090;-76
2023/04/16 11:19:37;;;;;;;31.05;15.88;;;;;;;;;;5085362;28;20048;-76
2023/04/16 11:22:03;;;;;;;27.90;16.45;;;;;;;;;;5094471;28;20044;-76
2023/04/16 11:24:30;;;;;;;35.33;17.80;;;;;;;;;;5094294;28;20094;-76
2023/04/16 11:26:56;;;;;;;31.55;16.35;;;;;;;;;;5079359;28;20090;-76
2023/04/16 11:29:22;;;;;;;30.77;15.55;;;;;;;;;;5083561;28;20032;-77
2023/04/16 11:31:53;;;;;;;30.52;15.38;;;;;;;;;;5080107;28;20124;-76
2023/04/16 11:34:20;;;;;;;27.42;16.30;;;;;;;;;;5074050;28;20044;-76
2023/04/16 11:36:47;;;;;;;30.40;15.68;;;;;;;;;;5075797;28;20044;-76
2023/04/16 11:39:13;;;;;;;33.13;17.90;;;;;;;;;;5093984;28;20036;-76
2023/04/16 11:41:43;;;;;;;29.00;17.55;;;;;;;;;;5094198;28;20096;-76
2023/04/16 11:44:18;;;;;;;32.30;17.05;;;;;;;;;;5093892;28;20036;-76
2023/04/16 11:46:44;;;;;;;26.10;15.38;;;;;;;;;;5079589;28;20045;-76
2023/04/16 11:49:10;;;;;;;29.15;16.20;;;;;;;;;;5073715;28;20040;-76
2023/04/16 11:51:44;;;;;;;33.50;17.60;;;;;;;;;;5073892;28;20037;-77
2023/04/16 11:54:17;;;;;;;34.22;16.67;;;;;;;;;;5073490;28;20087;-76
2023/04/16 11:56:46;;;;;;;32.50;16.80;;;;;;;;;;5080166;28;20052;-76
2023/04/16 11:59:19;;;;;;;34.67;18.80;;;;;;;;;;5091354;28;20074;-77
2023/04/16 12:01:46;;;;;;;26.33;16.23;;;;;;;;;;5094478;28;20044;-77
2023/04/16 12:04:14;;;;;;;29.52;15.43;;;;;;;;;;5089118;28;20040;-76
2023/04/16 12:06:40;;;;;;;33.95;16.73;;;;;;;;;;5094138;28;20378;-77
2023/04/16 12:09:23;;;;;;;29.85;16.52;;;;;;;;;;5093060;28;20040;-77
2023/04/16 12:11:49;;;;;;;28.02;15.70;;;;;;;;;;5093944;28;20496;-76
2023/04/16 12:14:15;;;;;;;25.77;15.50;;;;;;;;;;5078348;28;20568;-76
2023/04/16 12:16:41;;;;;;;29.23;15.52;;;;;;;;;;5073680;28;20056;-77
2023/04/16 12:19:10;;;;;;;31.00;16.42;;;;;;;;;;5075607;28;20128;-76
2023/04/16 12:21:45;;;;;;;29.48;14.80;;;;;;;;;;5093757;28;20052;-76
2023/04/16 12:24:12;;;;;;;26.50;14.52;;;;;;;;;;5093776;28;20370;-77
2023/04/16 12:26:41;;;;;;;32.58;17.23;;;;;;;;;;5093498;28;20119;-76
2023/04/16 12:29:17;;;;;;;31.15;17.08;;;;;;;;;;5093672;28;20052;-77
2023/04/16 12:31:43;;;;;;;32.35;16.17;;;;;;;;;;5075585;28;20478;-76
2023/04/16 12:34:10;;;;;;;27.05;14.70;;;;;;;;;;5092569;28;20036;-76
2023/04/16 12:36:36;;;;;;;29.20;17.02;;;;;;;;;;5093337;28;20517;-77
2023/04/16 12:39:02;;;;;;;32.85;17.23;;;;;;;;;;5093575;28;20063;-77
2023/04/16 12:41:28;;;;;;;29.55;16.98;;;;;;;;;;5093872;28;20515;-76
2023/04/16 12:44:05;;;;;;;30.42;18.05;;;;;;;;;;5093847;28;20044;-77
2023/04/16 12:46:31;;;;;;;27.63;16.42;;;;;;;;;;5093879;28;20078;-77
2023/04/16 12:48:57;;;;;;;26.45;15.48;;;;;;;;;;5091700;28;20043;-77
2023/04/16 12:51:24;;;;;;;28.20;15.80;;;;;;;;;;5073157;28;20040;-76
2023/04/16 12:53:50;;;;;;;31.15;17.52;;;;;;;;;;5073546;28;20047;-76
2023/04/16 12:56:16;;;;;;;32.10;17.75;;;;;;;;;;5073251;28;20060;-77
2023/04/16 12:58:42;;;;;;;30.55;16.73;;;;;;;;;;5073095;28;20090;-77
2023/04/16 13:01:08;;;;;;;32.10;17.80;;;;;;;;;;5074396;28;20572;-76
2023/04/16 13:03:35;;;;;;;27.88;16.13;;;;;;;;;;5089366;28;20044;-77
2023/04/16 13:06:02;;;;;;;30.20;18.08;;;;;;;;;;5088925;28;20054;-76
2023/04/16 13:08:28;;;;;;;27.17;17.00;;;;;;;;;;5096991;28;20043;-76
2023/04/16 13:10:55;;;;;;;29.52;17.83;;;;;;;;;;5095373;28;20047;-77
2023/04/16 13:13:21;;;;;;;37.92;19.17;;;;;;;;;;5096783;28;20047;-77
2023/04/16 13:15:47;;;;;;;29.65;17.65;;;;;;;;;;5096617;28;20040;-77
2023/04/16 13:18:13;;;;;;;28.88;17.90;;;;;;;;;;5096404;28;20052;-77
2023/04/16 13:20:39;;;;;;;34.22;18.08;;;;;;;;;;5096931;28;20055;-77
2023/04/16 13:23:05;;;;;;;30.90;18.92;;;;;;;;;;5095209;28;20047;-77
2023/04/16 13:25:31;;;;;;;34.00;17.55;;;;;;;;;;5096920;28;20042;-77
2023/04/16 13:27:57;;;;;;;33.42;17.90;;;;;;;;;;5096403;28;20036;-77
2023/04/16 13:30:24;;;;;;;30.20;18.67;;;;;;;;;;5096233;28;20067;-77
2023/04/16 13:32:50;;;;;;;33.70;18.27;;;;;;;;;;5096264;28;20048;-77
2023/04/16 13:35:16;;;;;;;32.42;17.92;;;;;;;;;;5096254;28;20109;-77
2023/04/16 13:37:42;;;;;;;30.90;16.70;;;;;;;;;;5089414;28;20398;-77
2023/04/16 13:40:08;;;;;;;33.63;18.30;;;;;;;;;;5099146;28;20046;-77
2023/04/16 13:42:34;;;;;;;40.58;19.65;;;;;;;;;;5098600;28;20044;-77
2023/04/16 13:45:00;;;;;;;39.30;18.73;;;;;;;;;;5096329;28;20078;-77
2023/04/16 13:47:26;;;;;;;27.20;18.02;;;;;;;;;;5097740;28;20055;-77
2023/04/16 13:49:52;;;;;;;35.05;18.25;;;;;;;;;;5097034;28;20036;-77
2023/04/16 13:52:18;;;;;;;31.83;18.45;;;;;;;;;;5095718;28;20040;-76
2023/04/16 13:54:44;;;;;;;36.35;19.58;;;;;;;;;;5096220;28;20462;-76
2023/04/16 13:57:11;;;;;;;33.90;19.67;;;;;;;;;;5095825;28;20044;-76
2023/04/16 13:59:37;;;;;;;30.08;18.80;;;;;;;;;;5091819;28;20043;-76
2023/04/16 14:02:04;;;;;;;33.70;19.45;;;;;;;;;;5096179;28;20083;-76
2023/04/16 14:04:30;;;;;;;31.02;18.48;;;;;;;;;;5096359;28;20048;-76
2023/04/16 14:06:56;;;;;;;32.03;19.52;;;;;;;;;;5095747;28;20052;-76
2023/04/16 14:09:23;;;;;;;33.67;18.35;;;;;;;;;;5095409;28;20104;-76
2023/04/16 14:11:49;;;;;;;30.63;18.67;;;;;;;;;;5095384;28;20127;-76
2023/04/16 14:14:15;;;;;;;35.30;19.67;;;;;;;;;;5094715;28;20040;-76
2023/04/16 14:16:41;;;;;;;35.38;20.15;;;;;;;;;;5095195;28;20040;-76